Time;durP1;ratioP1;P1;durP2;ratioP2;P2;SDS_P1;SDS_P2;PMS_P1;PMS_P2;Temp;Humidity;BMP_temperature;BMP_pressure;BME280_temperature;BME280_humidity;BME280_pressure;Samples;Min_cycle;Max_cycle;Signal;HPM_P1;HPM_P2
2022/01/20 00:03:32;;;;;;;9.00;2.05;;;12.30;80.70;;;;;;5033135;28;20029;-70
2022/01/20 00:08:49;;;;;;;9.02;1.75;;;12.30;80.90;;;;;;5032950;28;20029;-70
2022/01/20 00:27:50;;;;;;;10.25;2.72;;;12.00;80.60;;;;;;5032778;28;20124;-71
2022/01/20 00:33:14;;;;;;;6.88;1.95;;;12.00;80.90;;;;;;5032409;28;20025;-70
2022/01/20 00:38:16;;;;;;;8.40;1.92;;;12.00;81.00;;;;;;5032747;28;20030;-71
2022/01/20 00:40:41;;;;;;;10.00;2.03;;;11.90;80.90;;;;;;5032644;28;20017;-68
2022/01/20 00:43:07;;;;;;;8.10;2.00;;;11.90;81.10;;;;;;5032666;28;20025;-71
2022/01/20 00:45:33;;;;;;;9.55;2.42;;;11.90;80.90;;;;;;5032446;28;20033;-72
2022/01/20 00:47:58;;;;;;;7.57;1.92;;;11.90;80.70;;;;;;5032224;28;20022;-70
2022/01/20 00:50:24;;;;;;;7.97;1.75;;;11.90;81.10;;;;;;5032535;28;20497;-71
2022/01/20 00:52:51;;;;;;;8.95;1.90;;;11.90;81.40;;;;;;5031173;28;20025;-68
2022/01/20 00:55:17;;;;;;;8.50;2.17;;;11.90;81.80;;;;;;5032487;28;20057;-71
2022/01/20 00:57:42;;;;;;;5.82;1.98;;;11.80;82.40;;;;;;5032421;28;20399;-72
2022/01/20 01:00:12;;;;;;;6.82;1.40;;;11.80;82.70;;;;;;5034923;28;20470;-71
2022/01/20 01:02:37;;;;;;;8.65;1.80;;;11.80;82.80;;;;;;5035747;28;20048;-72
2022/01/20 01:05:05;;;;;;;7.43;2.22;;;11.90;83.20;;;;;;5035651;28;20053;-67
2022/01/20 01:10:05;;;;;;;8.13;2.13;;;11.80;83.60;;;;;;5034869;28;20037;-71
2022/01/20 01:13:08;;;;;;;5.95;1.77;;;11.90;84.00;;;;;;5035977;28;20081;-69
2022/01/20 01:15:32;;;;;;;9.52;1.75;;;11.90;83.80;;;;;;5033520;28;20048;-67
2022/01/20 01:23:26;;;;;;;7.40;1.50;;;11.80;84.40;;;;;;5035556;28;20091;-65
2022/01/20 01:25:52;;;;;;;8.75;1.90;;;11.70;84.70;;;;;;5035492;28;20044;-71
2022/01/20 01:28:20;;;;;;;9.32;2.08;;;11.70;84.90;;;;;;5035379;28;20026;-69
2022/01/20 01:33:11;;;;;;;6.97;1.83;;;11.70;85.20;;;;;;5035643;28;20029;-71
2022/01/20 01:35:40;;;;;;;6.88;1.70;;;11.60;84.80;;;;;;5035384;28;20033;-71
2022/01/20 01:40:34;;;;;;;6.32;1.95;;;11.80;84.90;;;;;;5035441;28;20034;-72
2022/01/20 01:43:11;;;;;;;7.25;2.10;;;11.70;85.10;;;;;;5035438;28;20053;-71
2022/01/20 01:45:40;;;;;;;7.80;1.70;;;11.70;84.80;;;;;;5034826;28;20041;-72
2022/01/20 01:48:06;;;;;;;6.97;1.30;;;11.70;85.20;;;;;;5035260;28;20024;-71
2022/01/20 01:50:32;;;;;;;4.88;1.60;;;11.80;85.20;;;;;;5035086;28;20033;-71
2022/01/20 01:53:00;;;;;;;8.55;2.33;;;11.70;85.10;;;;;;5035230;28;20383;-70
2022/01/20 01:55:26;;;;;;;7.95;1.77;;;11.70;84.60;;;;;;5035030;28;20030;-71
2022/01/20 01:57:51;;;;;;;9.55;1.95;;;11.70;85.50;;;;;;5034863;28;20382;-71
2022/01/20 02:00:18;;;;;;;5.95;1.48;;;11.60;84.90;;;;;;5034759;28;20033;-72
2022/01/20 02:02:45;;;;;;;11.73;1.90;;;11.70;85.20;;;;;;5034918;28;20018;-69
2022/01/20 02:05:14;;;;;;;7.47;1.98;;;11.60;85.20;;;;;;5034898;28;20397;-71
2022/01/20 02:21:01;;;;;;;5.63;1.55;;;11.50;84.20;;;;;;5034444;28;20033;-71
2022/01/20 02:23:27;;;;;;;4.07;1.13;;;11.60;84.30;;;;;;5034998;28;20038;-72
2022/01/20 02:25:53;;;;;;;7.38;1.65;;;11.50;84.00;;;;;;5034380;28;20137;-72
2022/01/20 02:28:19;;;;;;;7.00;1.55;;;11.50;84.40;;;;;;5034314;28;20089;-71
2022/01/20 02:30:44;;;;;;;6.40;1.80;;;11.40;84.20;;;;;;5034174;28;20030;-70
2022/01/20 02:33:16;;;;;;;6.50;1.55;;;11.40;84.20;;;;;;5034367;28;20368;-71
2022/01/20 02:35:45;;;;;;;5.13;1.40;;;11.40;84.40;;;;;;5034487;28;20029;-72
2022/01/20 02:38:17;;;;;;;8.55;1.52;;;11.40;84.40;;;;;;5034070;28;20391;-72
2022/01/20 02:45:58;;;;;;;6.50;1.17;;;11.40;85.10;;;;;;5034147;28;20421;-71
2022/01/20 02:48:24;;;;;;;6.82;1.30;;;11.40;85.10;;;;;;5034094;28;20429;-72
2022/01/20 02:50:50;;;;;;;5.35;1.30;;;11.40;84.90;;;;;;5049400;28;20116;-70
2022/01/20 02:53:16;;;;;;;8.68;1.52;;;11.40;85.10;;;;;;5034084;28;20116;-71
2022/01/20 02:55:41;;;;;;;4.07;1.05;;;11.30;85.10;;;;;;5034108;28;20470;-72
2022/01/20 02:58:08;;;;;;;5.75;0.98;;;11.40;85.40;;;;;;5033553;28;20093;-72
2022/01/20 03:00:34;;;;;;;5.93;1.00;;;11.40;85.70;;;;;;5033922;28;20028;-71
2022/01/20 03:03:01;;;;;;;5.35;1.48;;;11.40;85.80;;;;;;5033750;28;20463;-68
2022/01/20 03:05:27;;;;;;;4.22;0.93;;;11.40;86.00;;;;;;5033738;28;20069;-72
2022/01/20 03:07:52;;;;;;;6.95;1.23;;;11.30;86.40;;;;;;5033665;28;20067;-71
2022/01/20 03:10:18;;;;;;;4.45;0.90;;;11.40;86.40;;;;;;5033687;28;20037;-72
2022/01/20 03:12:44;;;;;;;2.78;0.77;;;11.40;86.40;;;;;;5033208;28;20030;-72
2022/01/20 03:15:09;;;;;;;9.10;1.50;;;11.30;86.30;;;;;;5033721;28;20044;-72
2022/01/20 03:17:35;;;;;;;5.50;1.00;;;11.40;86.30;;;;;;5033256;28;20463;-72
2022/01/20 03:20:00;;;;;;;3.88;0.73;;;11.40;86.20;;;;;;5033530;28;20067;-72
2022/01/20 03:22:26;;;;;;;4.28;1.33;;;11.40;86.30;;;;;;5033227;28;20033;-71
2022/01/20 03:24:53;;;;;;;7.53;1.23;;;11.40;86.40;;;;;;5033410;28;20041;-70
2022/01/20 03:27:19;;;;;;;4.85;1.05;;;11.30;86.70;;;;;;5033168;28;20049;-72
2022/01/20 03:29:44;;;;;;;3.72;0.77;;;11.30;86.70;;;;;;5033166;28;20064;-70
2022/01/20 03:32:10;;;;;;;6.57;1.08;;;11.30;86.80;;;;;;5033362;28;20104;-70
2022/01/20 03:34:35;;;;;;;5.80;1.05;;;11.40;86.50;;;;;;5033298;28;20025;-65
2022/01/20 03:37:03;;;;;;;4.90;0.90;;;11.30;86.70;;;;;;5033255;28;20053;-67
2022/01/20 03:39:30;;;;;;;5.63;1.17;;;11.30;86.90;;;;;;5033244;28;20029;-70
2022/01/20 03:41:55;;;;;;;4.45;1.38;;;11.30;86.80;;;;;;5032993;28;20017;-71
2022/01/20 03:44:21;;;;;;;6.80;0.80;;;11.30;86.80;;;;;;5033155;28;20021;-72
2022/01/20 03:46:46;;;;;;;3.80;0.80;;;11.30;86.70;;;;;;5033139;28;20033;-71
2022/01/20 03:49:35;;;;;;;8.73;1.30;;;11.30;86.50;;;;;;5032964;28;20044;-72
2022/01/20 03:52:02;;;;;;;4.82;1.15;;;11.20;86.00;;;;;;5031818;28;20032;-71
2022/01/20 03:54:27;;;;;;;6.28;1.13;;;11.20;85.80;;;;;;5028299;28;20037;-71
2022/01/20 03:56:53;;;;;;;5.05;1.00;;;11.10;86.00;;;;;;5028182;28;20027;-71
2022/01/20 03:59:18;;;;;;;7.40;1.10;;;11.10;86.00;;;;;;5024272;28;20033;-71
2022/01/20 04:01:45;;;;;;;5.30;1.02;;;11.20;86.10;;;;;;5027435;28;20021;-72
2022/01/20 04:04:11;;;;;;;5.53;1.23;;;11.20;86.20;;;;;;5027651;28;20438;-71
2022/01/20 04:06:37;;;;;;;5.00;0.70;;;11.20;86.20;;;;;;5024324;28;20045;-71
2022/01/20 04:09:03;;;;;;;4.03;0.95;;;11.20;86.30;;;;;;5028033;28;20025;-70
2022/01/20 04:11:29;;;;;;;6.80;1.33;;;11.10;86.30;;;;;;5024657;28;20044;-70
2022/01/20 04:13:56;;;;;;;8.95;1.30;;;11.10;86.30;;;;;;5031130;28;20482;-69
2022/01/20 04:16:37;;;;;;;3.83;0.70;;;11.00;86.50;;;;;;5029861;28;20026;-68
2022/01/20 04:19:10;;;;;;;8.48;1.45;;;11.00;86.50;;;;;;5031940;28;20025;-71
2022/01/20 04:21:38;;;;;;;9.10;1.33;;;11.20;86.50;;;;;;5032848;28;20076;-71
2022/01/20 04:24:05;;;;;;;5.25;1.10;;;11.10;86.50;;;;;;5032373;28;20401;-71
2022/01/20 04:26:31;;;;;;;6.28;1.05;;;11.10;86.80;;;;;;5032393;28;20029;-69
2022/01/20 04:28:57;;;;;;;5.63;1.45;;;11.20;86.10;;;;;;5032690;28;20017;-70
2022/01/20 04:31:24;;;;;;;7.40;1.30;;;11.20;85.50;;;;;;5032809;28;20533;-70
2022/01/20 04:33:51;;;;;;;5.60;1.35;;;11.30;85.10;;;;;;5033100;28;20028;-70
2022/01/20 04:36:17;;;;;;;4.53;1.52;;;11.40;84.90;;;;;;5018836;28;20394;-71
2022/01/20 04:38:42;;;;;;;5.63;1.02;;;11.40;84.70;;;;;;5036491;28;20029;-70
2022/01/20 04:41:09;;;;;;;6.03;1.77;;;11.30;84.80;;;;;;5036205;28;20025;-69
2022/01/20 04:43:35;;;;;;;5.20;1.48;;;11.40;84.70;;;;;;5036468;28;20395;-69
2022/01/20 04:49:04;;;;;;;10.50;1.90;;;11.30;84.90;;;;;;5036358;28;20025;-69
2022/01/20 04:59:39;;;;;;;10.70;2.30;;;11.30;85.00;;;;;;5036370;28;20076;-70
2022/01/20 05:02:04;;;;;;;8.63;2.08;;;11.20;85.00;;;;;;5036155;28;20034;-70
2022/01/20 05:04:30;;;;;;;10.23;2.03;;;11.10;85.20;;;;;;5035844;28;20481;-70
2022/01/20 05:06:57;;;;;;;9.50;2.28;;;11.20;84.70;;;;;;5036050;28;20115;-70
2022/01/20 05:09:23;;;;;;;8.68;2.00;;;11.20;84.40;;;;;;5035657;28;20025;-70
2022/01/20 05:11:58;;;;;;;11.02;2.75;;;11.20;84.00;;;;;;5035686;28;20109;-66
2022/01/20 05:14:24;;;;;;;9.20;2.08;;;11.10;83.90;;;;;;5035679;28;20036;-70
2022/01/20 05:16:53;;;;;;;12.23;2.28;;;11.20;83.70;;;;;;5035889;28;20505;-70
2022/01/20 05:19:19;;;;;;;11.20;2.78;;;11.20;82.90;;;;;;5035711;28;20022;-70
2022/01/20 05:21:45;;;;;;;10.10;2.38;;;11.20;82.60;;;;;;5018136;28;20387;-66
2022/01/20 05:24:10;;;;;;;10.48;2.03;;;11.10;83.70;;;;;;5035330;28;20463;-70
2022/01/20 05:26:36;;;;;;;7.47;1.90;;;11.10;82.80;;;;;;5035402;28;20060;-70
2022/01/20 05:29:02;;;;;;;9.63;1.83;;;11.10;82.70;;;;;;5035583;28;20481;-70
2022/01/20 05:31:27;;;;;;;10.65;1.70;;;11.10;82.80;;;;;;5035628;28;20029;-70
2022/01/20 05:33:53;;;;;;;12.38;2.40;;;11.20;82.40;;;;;;5035669;28;20029;-69
2022/01/20 05:36:18;;;;;;;12.13;2.22;;;11.20;82.30;;;;;;5035460;28;20486;-71
2022/01/20 05:38:44;;;;;;;13.35;2.38;;;11.30;82.20;;;;;;5035172;28;20025;-69
2022/01/20 05:41:09;;;;;;;9.25;2.60;;;11.30;82.20;;;;;;5035285;28;20028;-70
2022/01/20 05:43:35;;;;;;;7.65;1.77;;;11.30;81.90;;;;;;5035359;28;20025;-70
2022/01/20 05:46:03;;;;;;;13.38;2.28;;;11.30;82.20;;;;;;5033724;28;20029;-69
2022/01/20 05:48:33;;;;;;;8.25;1.80;;;11.40;82.30;;;;;;5035322;28;20035;-66
2022/01/20 05:51:00;;;;;;;9.32;2.25;;;11.40;82.20;;;;;;5034890;28;20459;-69
2022/01/20 05:53:26;;;;;;;11.63;1.85;;;11.40;82.40;;;;;;5035020;28;20474;-69
2022/01/20 05:55:52;;;;;;;7.85;1.67;;;11.40;82.90;;;;;;5034945;28;20111;-69
2022/01/20 05:58:19;;;;;;;6.60;1.63;;;11.30;83.10;;;;;;5017205;28;20029;-69
2022/01/20 06:00:45;;;;;;;8.73;1.38;;;11.30;83.10;;;;;;5033270;28;20018;-69
2022/01/20 06:05:55;;;;;;;6.07;1.67;;;11.30;83.20;;;;;;5033127;28;20121;-70
2022/01/20 06:08:20;;;;;;;7.40;1.33;;;11.30;83.40;;;;;;5032971;28;20092;-70
2022/01/20 06:10:46;;;;;;;6.20;1.58;;;11.20;83.70;;;;;;5034660;28;20410;-69
2022/01/20 06:13:11;;;;;;;6.72;1.45;;;11.30;83.60;;;;;;5034613;28;20026;-70
2022/01/20 06:15:37;;;;;;;8.90;1.60;;;11.20;83.80;;;;;;5034540;28;20033;-67
2022/01/20 06:18:03;;;;;;;7.15;1.15;;;11.20;84.10;;;;;;5034525;28;20021;-69
2022/01/20 06:20:30;;;;;;;7.05;1.45;;;11.30;83.90;;;;;;5034663;28;20470;-70
2022/01/20 06:22:55;;;;;;;10.07;1.70;;;11.20;83.70;;;;;;5034497;28;20552;-70
2022/01/20 06:25:21;;;;;;;12.10;1.75;;;11.20;84.10;;;;;;5034331;28;20814;-70
2022/01/20 06:27:46;;;;;;;8.80;1.50;;;11.20;83.90;;;;;;5034426;28;20037;-67
2022/01/20 06:30:12;;;;;;;5.82;1.25;;;11.20;84.00;;;;;;5034643;28;20022;-69
2022/01/20 06:32:38;;;;;;;8.00;1.67;;;11.20;84.00;;;;;;5034440;28;20049;-67
2022/01/20 06:35:04;;;;;;;6.90;1.75;;;11.20;83.60;;;;;;5034418;28;20528;-69
2022/01/20 06:37:30;;;;;;;6.20;1.08;;;11.20;84.10;;;;;;5033911;28;20014;-69
2022/01/20 06:39:55;;;;;;;6.63;1.83;;;11.20;83.20;;;;;;5034223;28;20026;-69
2022/01/20 06:42:21;;;;;;;7.07;1.55;;;11.20;83.50;;;;;;5034204;28;20029;-70
2022/01/20 06:44:47;;;;;;;8.75;1.65;;;11.10;83.30;;;;;;5033998;28;20038;-67
2022/01/20 06:47:13;;;;;;;7.85;1.65;;;11.10;83.70;;;;;;5034017;28;20083;-67
2022/01/20 06:49:38;;;;;;;11.18;2.50;;;11.10;83.40;;;;;;5033794;28;20028;-68
2022/01/20 06:52:04;;;;;;;9.63;2.28;;;11.00;82.70;;;;;;5033905;28;20030;-70
2022/01/20 06:54:30;;;;;;;8.57;1.65;;;10.80;83.50;;;;;;5033947;28;20392;-70
2022/01/20 06:56:56;;;;;;;12.52;2.38;;;10.50;84.60;;;;;;5033530;28;20021;-70
2022/01/20 06:59:22;;;;;;;9.55;2.10;;;10.60;84.40;;;;;;5031511;28;20025;-69
2022/01/20 07:01:51;;;;;;;9.45;1.85;;;10.60;84.40;;;;;;5018905;28;20087;-70
2022/01/20 07:04:17;;;;;;;13.00;1.98;;;10.50;84.60;;;;;;5020925;28;20028;-64
2022/01/20 07:06:43;;;;;;;12.13;2.22;;;10.50;84.80;;;;;;5024521;28;20041;-70
2022/01/20 07:09:10;;;;;;;8.70;2.35;;;10.50;85.00;;;;;;5018398;28;20680;-69
2022/01/20 07:11:40;;;;;;;11.43;1.92;;;10.40;85.30;;;;;;5026352;28;20116;-72
2022/01/20 07:14:06;;;;;;;9.52;2.30;;;10.30;85.70;;;;;;5032556;28;20037;-69
2022/01/20 07:16:32;;;;;;;13.27;2.80;;;10.30;86.20;;;;;;5033364;28;20056;-71
2022/01/20 07:18:58;;;;;;;10.57;2.15;;;10.30;86.30;;;;;;5031734;28;20069;-67
2022/01/20 07:21:24;;;;;;;10.23;2.63;;;10.30;86.10;;;;;;5014648;28;20017;-69
2022/01/20 07:23:50;;;;;;;14.13;2.60;;;10.30;86.10;;;;;;5031564;28;20036;-65
2022/01/20 07:26:16;;;;;;;14.88;2.85;;;10.20;86.00;;;;;;5018269;28;20048;-63
2022/01/20 07:28:42;;;;;;;14.05;3.22;;;10.30;86.20;;;;;;5030318;28;20029;-65
2022/01/20 07:31:08;;;;;;;11.32;1.80;;;10.10;87.40;;;;;;5017065;28;20021;-70
2022/01/20 07:33:33;;;;;;;14.57;2.83;;;10.00;87.40;;;;;;5033319;28;20022;-65
2022/01/20 07:35:59;;;;;;;15.38;3.72;;;9.90;87.90;;;;;;5037202;28;20029;-67
2022/01/20 07:38:25;;;;;;;15.68;3.97;;;9.80;88.20;;;;;;5026230;28;20014;-68
2022/01/20 07:40:51;;;;;;;17.55;3.17;;;9.80;88.70;;;;;;5010646;28;20153;-67
2022/01/20 07:43:17;;;;;;;18.55;3.47;;;9.80;88.70;;;;;;5027259;28;20134;-70
2022/01/20 07:45:43;;;;;;;20.30;4.05;;;9.80;88.30;;;;;;5039585;28;20034;-68
2022/01/20 07:48:08;;;;;;;15.73;2.63;;;9.70;88.60;;;;;;5033834;28;20036;-69
2022/01/20 07:50:34;;;;;;;14.75;2.65;;;9.70;89.00;;;;;;5040106;28;20071;-68
2022/01/20 07:53:00;;;;;;;15.50;2.85;;;9.60;89.00;;;;;;5022481;28;20481;-68
2022/01/20 07:55:26;;;;;;;10.95;3.28;;;9.70;89.00;;;;;;5049880;28;20045;-68
2022/01/20 07:57:51;;;;;;;15.05;2.92;;;9.60;89.40;;;;;;5040062;28;20053;-66
2022/01/20 08:00:17;;;;;;;12.52;3.10;;;9.60;88.60;;;;;;5017888;28;20112;-66
2022/01/20 08:02:43;;;;;;;15.73;3.15;;;9.70;88.50;;;;;;5015472;28;20081;-67
2022/01/20 08:05:09;;;;;;;13.45;3.03;;;9.70;87.80;;;;;;5026017;28;20056;-69
2022/01/20 08:07:35;;;;;;;12.07;3.38;;;9.80;87.50;;;;;;5025321;28;20097;-68
2022/01/20 08:10:00;;;;;;;17.25;2.95;;;9.80;87.10;;;;;;5026798;28;20076;-68
2022/01/20 08:12:28;;;;;;;12.65;2.90;;;9.80;87.00;;;;;;5033306;28;20475;-68
2022/01/20 08:14:55;;;;;;;18.17;3.00;;;9.70;87.40;;;;;;5017389;28;20026;-69
2022/01/20 08:17:21;;;;;;;14.93;3.38;;;9.60;88.40;;;;;;5019854;28;20048;-68
2022/01/20 08:19:48;;;;;;;16.42;3.70;;;9.60;89.10;;;;;;5035692;28;20530;-69
2022/01/20 08:22:13;;;;;;;13.60;3.20;;;9.60;88.70;;;;;;5013988;28;20029;-70
2022/01/20 08:24:41;;;;;;;15.02;2.95;;;9.60;89.10;;;;;;5030423;28;20037;-72
2022/01/20 08:27:06;;;;;;;17.40;3.30;;;9.70;88.50;;;;;;5020437;28;20522;-68
2022/01/20 08:29:32;;;;;;;14.93;3.42;;;9.90;87.20;;;;;;5025845;28;20134;-67
2022/01/20 08:31:57;;;;;;;13.05;2.92;;;10.00;86.30;;;;;;5028533;28;20359;-67
2022/01/20 08:34:23;;;;;;;15.57;3.00;;;10.00;85.60;;;;;;5034153;28;20536;-68
2022/01/20 08:36:50;;;;;;;14.05;3.55;;;10.00;86.10;;;;;;5017380;28;20473;-68
2022/01/20 08:41:58;;;;;;;17.10;3.58;;;10.10;85.00;;;;;;5028970;28;20026;-70
2022/01/20 08:44:23;;;;;;;12.65;2.90;;;10.10;83.70;;;;;;5029295;28;20430;-67
2022/01/20 08:46:49;;;;;;;14.45;2.90;;;10.10;83.30;;;;;;5030081;28;20116;-68
2022/01/20 08:49:15;;;;;;;10.27;2.88;;;10.10;83.30;;;;;;5030999;28;20017;-67
2022/01/20 08:51:40;;;;;;;7.82;1.95;;;10.10;83.60;;;;;;5035846;28;20100;-68
2022/01/20 08:54:06;;;;;;;13.38;2.97;;;10.10;83.30;;;;;;5033680;28;20053;-69
2022/01/20 08:56:34;;;;;;;11.60;2.95;;;10.10;84.50;;;;;;5034047;28;20055;-68
2022/01/20 08:59:05;;;;;;;9.70;2.00;;;10.10;84.00;;;;;;5033803;28;20027;-68
2022/01/20 09:01:32;;;;;;;13.38;2.33;;;10.10;84.40;;;;;;5030509;28;20030;-70
2022/01/20 09:03:58;;;;;;;9.00;2.17;;;10.10;83.70;;;;;;5023780;28;20030;-68
2022/01/20 09:06:23;;;;;;;14.45;2.10;;;10.10;83.40;;;;;;5031671;28;20038;-70
2022/01/20 09:08:49;;;;;;;10.57;2.05;;;10.10;83.40;;;;;;5034632;28;20494;-69
2022/01/20 09:11:38;;;;;;;9.65;1.88;;;10.00;83.20;;;;;;5036688;28;20037;-69
2022/01/20 09:16:48;;;;;;;10.85;2.40;;;10.00;83.10;;;;;;5036168;28;20040;-69
2022/01/20 09:19:15;;;;;;;12.82;1.65;;;10.00;83.50;;;;;;5034544;28;20384;-68
2022/01/20 09:21:40;;;;;;;7.32;2.35;;;10.00;82.80;;;;;;5033087;28;20033;-67
2022/01/20 09:24:07;;;;;;;11.45;1.83;;;10.10;84.30;;;;;;5029081;28;20033;-66
2022/01/20 09:26:33;;;;;;;11.60;1.50;;;10.20;82.20;;;;;;5033137;28;20111;-66
2022/01/20 09:28:59;;;;;;;8.75;2.05;;;10.20;81.20;;;;;;5026076;28;20022;-64
2022/01/20 09:31:26;;;;;;;7.22;1.35;;;10.30;82.50;;;;;;5028919;28;20029;-65
2022/01/20 09:33:54;;;;;;;8.85;1.35;;;10.30;82.10;;;;;;5029124;28;20164;-65
2022/01/20 09:36:21;;;;;;;7.28;1.20;;;10.20;80.50;;;;;;5030680;28;20021;-61
2022/01/20 09:38:48;;;;;;;9.32;1.33;;;10.20;80.60;;;;;;5028572;28;20045;-63
2022/01/20 09:41:13;;;;;;;7.72;1.17;;;10.20;80.80;;;;;;5030219;28;20025;-64
2022/01/20 09:43:39;;;;;;;6.50;1.63;;;10.10;81.30;;;;;;5029304;28;20027;-61
2022/01/20 09:46:04;;;;;;;7.07;1.08;;;10.20;81.00;;;;;;5029691;28;20407;-61
2022/01/20 09:48:32;;;;;;;8.10;1.35;;;10.10;80.70;;;;;;5024736;28;20025;-69
2022/01/20 09:51:00;;;;;;;7.65;1.75;;;10.20;81.40;;;;;;5020536;28;20524;-65
2022/01/20 09:53:27;;;;;;;8.32;1.73;;;10.30;79.30;;;;;;5030222;28;20021;-60
2022/01/20 09:55:53;;;;;;;8.73;1.60;;;10.20;81.30;;;;;;5033188;28;20033;-64
2022/01/20 09:58:19;;;;;;;6.90;1.00;;;10.30;82.90;;;;;;5022705;28;20136;-61
2022/01/20 10:00:45;;;;;;;6.68;1.35;;;10.30;80.70;;;;;;5030970;28;20490;-60
2022/01/20 10:03:14;;;;;;;8.55;1.20;;;10.40;83.40;;;;;;5030957;28;20438;-61
2022/01/20 10:05:47;;;;;;;8.00;1.30;;;10.50;80.90;;;;;;5027566;28;20060;-65
2022/01/20 10:08:21;;;;;;;9.00;2.03;;;10.40;80.90;;;;;;5024101;28;20474;-60
2022/01/20 10:10:57;;;;;;;5.57;1.23;;;10.60;82.30;;;;;;5027331;28;20026;-61
2022/01/20 10:13:24;;;;;;;9.85;1.33;;;10.70;83.40;;;;;;5021018;28;20085;-61
2022/01/20 10:16:06;;;;;;;9.13;1.88;;;10.70;80.20;;;;;;5030415;28;20069;-60
2022/01/20 10:18:34;;;;;;;10.77;1.95;;;10.80;79.90;;;;;;5019758;28;20029;-64
2022/01/20 10:21:04;;;;;;;9.38;1.95;;;10.70;79.90;;;;;;5026042;28;20025;-64
2022/01/20 10:23:32;;;;;;;13.43;2.30;;;10.80;80.00;;;;;;5030135;28;20100;-66
2022/01/20 10:26:08;;;;;;;11.00;2.58;;;10.70;79.80;;;;;;5032257;28;20033;-65
2022/01/20 10:29:00;;;;;;;10.48;1.98;;;10.70;79.40;;;;;;5033574;28;20025;-65
2022/01/20 10:31:44;;;;;;;8.75;1.73;;;10.70;79.80;;;;;;5032909;28;20033;-65
2022/01/20 10:34:30;;;;;;;12.57;2.47;;;10.80;79.90;;;;;;5032610;28;20025;-64
2022/01/20 10:37:01;;;;;;;11.50;2.47;;;10.70;79.80;;;;;;5039946;28;20025;-64
2022/01/20 10:39:33;;;;;;;9.90;2.08;;;10.70;79.80;;;;;;5035807;28;20386;-65
2022/01/20 10:42:04;;;;;;;10.13;1.65;;;10.70;80.10;;;;;;5031152;28;20114;-64
2022/01/20 10:44:44;;;;;;;11.70;2.28;;;10.60;81.60;;;;;;5034613;28;20394;-62
2022/01/20 10:47:18;;;;;;;10.43;2.65;;;10.60;81.80;;;;;;5018279;28;20022;-62
2022/01/20 10:49:46;;;;;;;12.60;2.88;;;10.60;82.40;;;;;;5031186;28;20022;-67
2022/01/20 10:52:14;;;;;;;10.43;2.38;;;10.50;83.10;;;;;;5021527;28;20033;-61
2022/01/20 10:54:43;;;;;;;9.02;2.47;;;10.60;83.50;;;;;;5020849;28;20470;-61
2022/01/20 10:57:11;;;;;;;9.57;2.00;;;10.70;81.80;;;;;;5020635;28;20037;-62
2022/01/20 10:59:56;;;;;;;11.75;2.38;;;10.80;82.60;;;;;;5026972;28;20025;-65
2022/01/20 11:02:26;;;;;;;12.32;2.45;;;10.90;79.20;;;;;;5038273;28;20029;-63
2022/01/20 11:04:53;;;;;;;7.28;1.65;;;10.90;77.50;;;;;;5012150;28;20091;-63
2022/01/20 11:07:19;;;;;;;9.23;1.83;;;10.90;77.60;;;;;;5018347;28;20057;-62
2022/01/20 11:09:49;;;;;;;9.60;2.05;;;10.90;76.10;;;;;;5020816;28;20014;-61
2022/01/20 11:12:16;;;;;;;6.75;1.02;;;10.90;75.10;;;;;;5010443;28;20398;-63
2022/01/20 11:14:45;;;;;;;5.68;0.93;;;10.90;74.90;;;;;;5041562;28;20489;-62
2022/01/20 11:17:26;;;;;;;5.80;1.40;;;10.90;75.00;;;;;;5017122;28;20075;-61
2022/01/20 11:19:55;;;;;;;6.93;1.35;;;10.90;74.90;;;;;;5019913;28;20029;-61
2022/01/20 11:22:21;;;;;;;6.28;1.63;;;10.90;76.20;;;;;;5025028;28;20082;-62
2022/01/20 11:24:58;;;;;;;6.65;1.42;;;10.80;76.20;;;;;;5029648;28;20037;-61
2022/01/20 11:27:38;;;;;;;7.10;1.38;;;10.90;76.40;;;;;;5023976;28;20026;-61
2022/01/20 11:30:24;;;;;;;5.20;1.63;;;10.90;76.40;;;;;;5017615;28;20383;-62
2022/01/20 11:33:04;;;;;;;11.05;1.83;;;11.00;76.40;;;;;;5018910;28;20056;-62
2022/01/20 11:35:37;;;;;;;4.68;1.08;;;10.90;76.00;;;;;;5023214;28;20471;-62
2022/01/20 11:38:03;;;;;;;7.25;1.50;;;11.00;76.20;;;;;;5020692;28;20033;-61
2022/01/20 11:40:29;;;;;;;10.65;1.80;;;10.90;76.30;;;;;;5018756;28;20021;-62
2022/01/20 11:43:09;;;;;;;6.38;1.45;;;11.00;75.60;;;;;;5028116;28;20028;-61
2022/01/20 11:45:39;;;;;;;5.47;1.30;;;11.00;75.90;;;;;;5027833;28;20037;-61
2022/01/20 11:48:24;;;;;;;7.50;1.10;;;11.10;76.50;;;;;;5016655;28;20412;-62
2022/01/20 11:51:05;;;;;;;11.30;2.88;;;11.00;77.90;;;;;;5025493;28;20046;-61
2022/01/20 11:53:31;;;;;;;11.52;2.35;;;11.10;79.20;;;;;;5017856;28;20022;-60
2022/01/20 11:55:57;;;;;;;8.88;1.50;;;11.00;79.30;;;;;;5018075;28;20024;-64
2022/01/20 11:58:24;;;;;;;9.52;2.30;;;11.00;79.90;;;;;;5020303;28;20071;-66
2022/01/20 12:00:58;;;;;;;9.85;2.42;;;11.00;79.70;;;;;;5015292;28;20439;-66
2022/01/20 12:03:24;;;;;;;11.55;2.28;;;10.90;80.50;;;;;;5020336;28;20057;-62
2022/01/20 12:05:58;;;;;;;11.27;1.90;;;10.90;80.00;;;;;;5027986;28;20064;-63
2022/01/20 12:08:24;;;;;;;11.85;2.60;;;10.90;80.50;;;;;;5014577;28;20026;-62
2022/01/20 12:11:09;;;;;;;12.60;2.67;;;10.90;81.00;;;;;;5026377;28;20109;-66
2022/01/20 12:13:48;;;;;;;7.97;1.98;;;10.80;81.40;;;;;;5026046;28;20160;-65
2022/01/20 12:16:22;;;;;;;9.43;2.00;;;10.80;81.60;;;;;;5026755;28;20018;-64
2022/01/20 12:18:52;;;;;;;11.30;2.03;;;10.80;81.10;;;;;;5026565;28;20041;-64
2022/01/20 12:21:19;;;;;;;12.30;2.25;;;10.90;80.30;;;;;;5023003;28;20519;-62
2022/01/20 12:23:46;;;;;;;6.25;1.75;;;10.90;79.60;;;;;;5019202;28;20022;-62
2022/01/20 12:26:12;;;;;;;10.27;1.73;;;10.80;80.10;;;;;;5025671;28;20586;-65
2022/01/20 12:28:37;;;;;;;10.30;1.48;;;10.80;79.60;;;;;;5027181;28;20040;-65
2022/01/20 12:31:06;;;;;;;8.35;1.25;;;10.80;79.20;;;;;;5020653;28;20481;-64
2022/01/20 12:33:33;;;;;;;8.32;2.20;;;10.80;79.70;;;;;;5022455;28;20086;-65
2022/01/20 12:36:04;;;;;;;8.00;1.65;;;10.90;79.20;;;;;;5027642;28;20022;-64
2022/01/20 12:38:35;;;;;;;9.88;1.55;;;10.90;78.50;;;;;;5032347;28;20021;-63
2022/01/20 12:41:07;;;;;;;7.93;1.70;;;10.90;77.80;;;;;;5030088;28;20033;-63
2022/01/20 12:43:56;;;;;;;10.95;2.38;;;11.00;77.40;;;;;;5018634;28;20118;-66
2022/01/20 12:46:27;;;;;;;11.40;2.20;;;11.00;76.60;;;;;;5024062;28;20042;-64
2022/01/20 12:49:08;;;;;;;9.68;1.58;;;11.00;76.80;;;;;;5022752;28;20505;-65
2022/01/20 12:51:45;;;;;;;8.73;1.38;;;11.00;77.00;;;;;;5015004;28;20419;-64
2022/01/20 12:54:17;;;;;;;6.55;1.40;;;11.00;75.90;;;;;;5016040;28;20060;-65
2022/01/20 12:56:45;;;;;;;13.45;2.35;;;11.00;76.70;;;;;;5027618;28;20557;-63
2022/01/20 12:59:17;;;;;;;9.82;1.90;;;10.90;77.10;;;;;;5017363;28;20033;-62
2022/01/20 13:01:44;;;;;;;9.43;1.92;;;11.00;76.60;;;;;;5022917;28;20117;-62
2022/01/20 13:04:13;;;;;;;9.00;1.48;;;11.00;77.40;;;;;;5031095;28;20461;-64
2022/01/20 13:06:45;;;;;;;8.15;1.98;;;11.10;77.40;;;;;;5021722;28;20033;-65
2022/01/20 13:09:11;;;;;;;9.77;2.00;;;11.00;77.40;;;;;;5020112;28;20029;-63
2022/01/20 13:11:59;;;;;;;11.32;2.47;;;11.00;77.80;;;;;;5032218;28;20018;-62
2022/01/20 13:14:32;;;;;;;10.23;1.50;;;11.10;78.70;;;;;;4970842;28;1820155;-65
2022/01/20 13:16:58;;;;;;;8.52;1.60;;;11.00;81.00;;;;;;5034564;28;20037;-63
2022/01/20 13:19:34;;;;;;;7.75;1.55;;;11.00;82.30;;;;;;5034990;28;20117;-61
2022/01/20 13:22:00;;;;;;;10.10;1.75;;;11.00;82.30;;;;;;5033793;28;20424;-62
2022/01/20 13:24:28;;;;;;;13.07;2.33;;;11.00;82.80;;;;;;5034186;28;20018;-62
2022/01/20 13:26:55;;;;;;;8.43;1.70;;;11.00;81.00;;;;;;5024464;28;20036;-63
2022/01/20 13:29:23;;;;;;;9.52;2.42;;;11.10;78.60;;;;;;5044153;28;20030;-62
2022/01/20 13:31:55;;;;;;;14.32;2.65;;;11.10;79.30;;;;;;5046167;28;20112;-61
2022/01/20 13:34:21;;;;;;;11.07;2.13;;;11.10;79.10;;;;;;5033430;28;20041;-60
2022/01/20 13:36:51;;;;;;;9.25;1.92;;;11.10;78.80;;;;;;5033926;28;20037;-61
2022/01/20 13:39:30;;;;;;;10.20;1.63;;;11.10;79.20;;;;;;5025612;28;20014;-62
2022/01/20 13:42:06;;;;;;;7.78;1.90;;;11.20;78.00;;;;;;5021546;28;20030;-61
2022/01/20 13:47:16;;;;;;;14.18;1.77;;;11.20;77.50;;;;;;5033171;28;20506;-61
2022/01/20 13:49:55;;;;;;;10.93;2.53;;;11.30;78.00;;;;;;5039134;28;20017;-62
2022/01/20 13:52:21;;;;;;;7.07;1.75;;;11.30;76.40;;;;;;5032452;28;20459;-61
2022/01/20 13:54:53;;;;;;;8.65;1.77;;;11.30;77.50;;;;;;5033432;28;20029;-62
2022/01/20 13:57:20;;;;;;;13.73;2.20;;;11.20;76.70;;;;;;5036527;28;20474;-61
2022/01/20 13:59:51;;;;;;;14.25;2.67;;;11.30;77.40;;;;;;5032992;28;20080;-61
2022/01/20 14:02:17;;;;;;;11.63;2.70;;;11.20;77.30;;;;;;5027187;28;20026;-62
2022/01/20 14:04:42;;;;;;;12.23;2.40;;;11.20;75.80;;;;;;5014465;28;20113;-64
2022/01/20 14:07:08;;;;;;;11.10;2.03;;;11.20;76.00;;;;;;5029748;28;20036;-65
2022/01/20 14:09:34;;;;;;;8.88;2.00;;;11.30;75.00;;;;;;5030555;28;20037;-63